sensor_id;sensor_type;location;lat;lon;timestamp;P1;durP1;ratioP1;P2;durP2;ratioP2
42770;SDS011;28426;42.872;25.314;2023-01-09T00:01:09;9.80;;;4.73;;
42770;SDS011;28426;42.872;25.314;2023-01-09T00:03:42;14.70;;;7.30;;
42770;SDS011;28426;42.872;25.314;2023-01-09T00:06:14;12.18;;;5.93;;
42770;SDS011;28426;42.872;25.314;2023-01-09T00:08:45;11.57;;;6.40;;
42770;SDS011;28426;42.872;25.314;2023-01-09T00:11:17;9.20;;;5.45;;
42770;SDS011;28426;42.872;25.314;2023-01-09T00:13:52;10.38;;;6.18;;
42770;SDS011;28426;42.872;25.314;2023-01-09T00:16:26;12.13;;;6.45;;
42770;SDS011;28426;42.872;25.314;2023-01-09T00:18:59;11.25;;;5.60;;
42770;SDS011;28426;42.872;25.314;2023-01-09T00:21:31;11.00;;;5.72;;
42770;SDS011;28426;42.872;25.314;2023-01-09T00:24:04;10.55;;;5.70;;
42770;SDS011;28426;42.872;25.314;2023-01-09T00:26:38;10.38;;;6.13;;
42770;SDS011;28426;42.872;25.314;2023-01-09T00:29:14;13.10;;;6.18;;
42770;SDS011;28426;42.872;25.314;2023-01-09T00:31:48;11.88;;;6.22;;
42770;SDS011;28426;42.872;25.314;2023-01-09T00:34:20;13.02;;;6.50;;
42770;SDS011;28426;42.872;25.314;2023-01-09T00:36:54;12.07;;;6.82;;
42770;SDS011;28426;42.872;25.314;2023-01-09T00:39:26;12.45;;;6.50;;
42770;SDS011;28426;42.872;25.314;2023-01-09T00:41:59;14.27;;;6.47;;
42770;SDS011;28426;42.872;25.314;2023-01-09T00:44:36;12.85;;;6.95;;
42770;SDS011;28426;42.872;25.314;2023-01-09T00:47:13;10.75;;;6.50;;
42770;SDS011;28426;42.872;25.314;2023-01-09T00:49:48;11.98;;;6.82;;
42770;SDS011;28426;42.872;25.314;2023-01-09T00:52:23;9.57;;;5.37;;
42770;SDS011;28426;42.872;25.314;2023-01-09T00:54:56;13.48;;;6.63;;
42770;SDS011;28426;42.872;25.314;2023-01-09T00:57:30;11.68;;;7.22;;
42770;SDS011;28426;42.872;25.314;2023-01-09T01:00:07;11.10;;;6.72;;
42770;SDS011;28426;42.872;25.314;2023-01-09T01:02:40;13.23;;;6.72;;
42770;SDS011;28426;42.872;25.314;2023-01-09T01:05:13;14.07;;;7.38;;
42770;SDS011;28426;42.872;25.314;2023-01-09T01:07:57;10.40;;;6.28;;
42770;SDS011;28426;42.872;25.314;2023-01-09T01:10:29;13.60;;;7.05;;
42770;SDS011;28426;42.872;25.314;2023-01-09T01:13:01;10.75;;;6.80;;
42770;SDS011;28426;42.872;25.314;2023-01-09T01:15:37;10.40;;;5.93;;
42770;SDS011;28426;42.872;25.314;2023-01-09T01:18:10;14.55;;;6.57;;
42770;SDS011;28426;42.872;25.314;2023-01-09T01:20:44;11.95;;;6.18;;
42770;SDS011;28426;42.872;25.314;2023-01-09T01:23:16;12.55;;;6.25;;
42770;SDS011;28426;42.872;25.314;2023-01-09T01:25:49;11.60;;;6.55;;
42770;SDS011;28426;42.872;25.314;2023-01-09T01:28:22;10.57;;;5.95;;
42770;SDS011;28426;42.872;25.314;2023-01-09T01:30:57;13.98;;;6.03;;
42770;SDS011;28426;42.872;25.314;2023-01-09T01:33:30;11.10;;;6.63;;
42770;SDS011;28426;42.872;25.314;2023-01-09T01:36:04;10.38;;;5.95;;
42770;SDS011;28426;42.872;25.314;2023-01-09T01:38:38;12.35;;;6.13;;
42770;SDS011;28426;42.872;25.314;2023-01-09T01:41:12;11.02;;;5.57;;
42770;SDS011;28426;42.872;25.314;2023-01-09T01:43:57;9.60;;;5.97;;
42770;SDS011;28426;42.872;25.314;2023-01-09T01:46:34;10.82;;;6.13;;
42770;SDS011;28426;42.872;25.314;2023-01-09T01:49:06;10.20;;;5.90;;
42770;SDS011;28426;42.872;25.314;2023-01-09T01:51:49;10.57;;;6.47;;
42770;SDS011;28426;42.872;25.314;2023-01-09T01:54:25;10.32;;;6.03;;
42770;SDS011;28426;42.872;25.314;2023-01-09T01:57:01;9.15;;;5.57;;
42770;SDS011;28426;42.872;25.314;2023-01-09T01:59:37;10.32;;;5.82;;
42770;SDS011;28426;42.872;25.314;2023-01-09T02:02:15;13.40;;;6.57;;
42770;SDS011;28426;42.872;25.314;2023-01-09T02:04:51;10.00;;;6.03;;
42770;SDS011;28426;42.872;25.314;2023-01-09T02:07:26;14.18;;;6.60;;
42770;SDS011;28426;42.872;25.314;2023-01-09T02:10:00;11.00;;;6.07;;
42770;SDS011;28426;42.872;25.314;2023-01-09T02:12:32;10.48;;;6.22;;
42770;SDS011;28426;42.872;25.314;2023-01-09T02:15:07;10.13;;;6.20;;
42770;SDS011;28426;42.872;25.314;2023-01-09T02:17:55;11.43;;;6.63;;
42770;SDS011;28426;42.872;25.314;2023-01-09T02:20:50;11.15;;;5.95;;
42770;SDS011;28426;42.872;25.314;2023-01-09T02:23:31;13.57;;;7.15;;
42770;SDS011;28426;42.872;25.314;2023-01-09T02:26:27;11.13;;;6.88;;
42770;SDS011;28426;42.872;25.314;2023-01-09T02:32:24;10.63;;;6.05;;
42770;SDS011;28426;42.872;25.314;2023-01-09T02:35:07;8.77;;;5.80;;
42770;SDS011;28426;42.872;25.314;2023-01-09T02:38:00;11.98;;;6.38;;
42770;SDS011;28426;42.872;25.314;2023-01-09T02:40:40;11.18;;;6.28;;
42770;SDS011;28426;42.872;25.314;2023-01-09T02:43:18;10.52;;;6.30;;
42770;SDS011;28426;42.872;25.314;2023-01-09T02:45:51;9.88;;;6.22;;
42770;SDS011;28426;42.872;25.314;2023-01-09T02:48:27;10.43;;;6.07;;
42770;SDS011;28426;42.872;25.314;2023-01-09T02:51:06;8.75;;;5.90;;
42770;SDS011;28426;42.872;25.314;2023-01-09T02:53:56;10.93;;;6.63;;
42770;SDS011;28426;42.872;25.314;2023-01-09T02:57:00;12.95;;;6.50;;
42770;SDS011;28426;42.872;25.314;2023-01-09T03:00:03;11.07;;;6.78;;
42770;SDS011;28426;42.872;25.314;2023-01-09T03:02:43;8.70;;;6.10;;
42770;SDS011;28426;42.872;25.314;2023-01-09T03:05:24;11.10;;;6.70;;
42770;SDS011;28426;42.872;25.314;2023-01-09T03:08:02;9.95;;;6.03;;
42770;SDS011;28426;42.872;25.314;2023-01-09T03:10:39;10.57;;;6.32;;
42770;SDS011;28426;42.872;25.314;2023-01-09T03:13:17;10.93;;;6.18;;
42770;SDS011;28426;42.872;25.314;2023-01-09T03:15:52;11.52;;;5.57;;
42770;SDS011;28426;42.872;25.314;2023-01-09T03:18:26;10.90;;;6.47;;
42770;SDS011;28426;42.872;25.314;2023-01-09T03:21:04;12.60;;;7.00;;
42770;SDS011;28426;42.872;25.314;2023-01-09T03:23:45;12.50;;;6.95;;
42770;SDS011;28426;42.872;25.314;2023-01-09T03:26:18;10.93;;;6.53;;
42770;SDS011;28426;42.872;25.314;2023-01-09T03:28:50;11.45;;;6.97;;
42770;SDS011;28426;42.872;25.314;2023-01-09T03:31:22;12.23;;;6.15;;
42770;SDS011;28426;42.872;25.314;2023-01-09T03:33:54;10.57;;;6.10;;
42770;SDS011;28426;42.872;25.314;2023-01-09T03:36:27;10.13;;;6.05;;
42770;SDS011;28426;42.872;25.314;2023-01-09T03:38:59;9.35;;;5.93;;
42770;SDS011;28426;42.872;25.314;2023-01-09T03:41:31;10.90;;;5.97;;
42770;SDS011;28426;42.872;25.314;2023-01-09T03:44:03;8.50;;;5.68;;
42770;SDS011;28426;42.872;25.314;2023-01-09T03:46:36;10.73;;;6.63;;
42770;SDS011;28426;42.872;25.314;2023-01-09T03:49:08;8.98;;;5.57;;
42770;SDS011;28426;42.872;25.314;2023-01-09T03:51:42;11.15;;;5.75;;
42770;SDS011;28426;42.872;25.314;2023-01-09T03:54:14;11.30;;;5.78;;
42770;SDS011;28426;42.872;25.314;2023-01-09T03:56:46;10.35;;;5.90;;
42770;SDS011;28426;42.872;25.314;2023-01-09T03:59:18;11.98;;;5.65;;
42770;SDS011;28426;42.872;25.314;2023-01-09T04:01:52;10.57;;;5.75;;
42770;SDS011;28426;42.872;25.314;2023-01-09T04:04:24;10.20;;;5.95;;
42770;SDS011;28426;42.872;25.314;2023-01-09T04:06:58;10.07;;;5.60;;
42770;SDS011;28426;42.872;25.314;2023-01-09T04:09:31;10.05;;;6.35;;
42770;SDS011;28426;42.872;25.314;2023-01-09T04:12:02;9.93;;;5.55;;
42770;SDS011;28426;42.872;25.314;2023-01-09T04:14:36;9.35;;;5.65;;
42770;SDS011;28426;42.872;25.314;2023-01-09T04:17:07;9.05;;;5.60;;
42770;SDS011;28426;42.872;25.314;2023-01-09T04:19:38;9.20;;;5.65;;
42770;SDS011;28426;42.872;25.314;2023-01-09T04:22:12;9.57;;;5.97;;
42770;SDS011;28426;42.872;25.314;2023-01-09T04:24:43;10.50;;;5.85;;
42770;SDS011;28426;42.872;25.314;2023-01-09T04:27:15;9.77;;;6.10;;
42770;SDS011;28426;42.872;25.314;2023-01-09T04:29:47;10.82;;;6.53;;
42770;SDS011;28426;42.872;25.314;2023-01-09T04:32:19;11.70;;;6.53;;
42770;SDS011;28426;42.872;25.314;2023-01-09T04:34:51;11.05;;;6.88;;
42770;SDS011;28426;42.872;25.314;2023-01-09T04:37:26;12.77;;;6.75;;
42770;SDS011;28426;42.872;25.314;2023-01-09T04:40:00;12.15;;;6.72;;
42770;SDS011;28426;42.872;25.314;2023-01-09T04:42:35;13.10;;;7.65;;
42770;SDS011;28426;42.872;25.314;2023-01-09T04:45:08;12.10;;;6.80;;
42770;SDS011;28426;42.872;25.314;2023-01-09T04:47:42;11.85;;;7.50;;
42770;SDS011;28426;42.872;25.314;2023-01-09T04:50:16;11.60;;;7.97;;
42770;SDS011;28426;42.872;25.314;2023-01-09T04:52:51;14.10;;;7.60;;
42770;SDS011;28426;42.872;25.314;2023-01-09T04:55:24;11.25;;;7.15;;
42770;SDS011;28426;42.872;25.314;2023-01-09T04:57:56;13.98;;;7.53;;
42770;SDS011;28426;42.872;25.314;2023-01-09T05:00:28;18.77;;;10.40;;
42770;SDS011;28426;42.872;25.314;2023-01-09T05:03:02;19.95;;;10.98;;
42770;SDS011;28426;42.872;25.314;2023-01-09T05:05:35;24.05;;;13.18;;
42770;SDS011;28426;42.872;25.314;2023-01-09T05:08:10;29.67;;;13.68;;
42770;SDS011;28426;42.872;25.314;2023-01-09T05:10:42;33.47;;;15.47;;
42770;SDS011;28426;42.872;25.314;2023-01-09T05:13:13;28.40;;;16.27;;
42770;SDS011;28426;42.872;25.314;2023-01-09T05:15:47;27.27;;;14.32;;
42770;SDS011;28426;42.872;25.314;2023-01-09T05:18:19;29.27;;;14.50;;
42770;SDS011;28426;42.872;25.314;2023-01-09T05:20:51;28.58;;;13.23;;
42770;SDS011;28426;42.872;25.314;2023-01-09T05:23:25;23.20;;;12.45;;
42770;SDS011;28426;42.872;25.314;2023-01-09T05:25:58;29.33;;;15.95;;
42770;SDS011;28426;42.872;25.314;2023-01-09T05:28:31;34.55;;;15.63;;
42770;SDS011;28426;42.872;25.314;2023-01-09T05:31:02;42.75;;;16.58;;
42770;SDS011;28426;42.872;25.314;2023-01-09T05:33:34;32.35;;;15.10;;
42770;SDS011;28426;42.872;25.314;2023-01-09T05:36:09;30.13;;;14.27;;
42770;SDS011;28426;42.872;25.314;2023-01-09T05:38:46;27.67;;;13.27;;
42770;SDS011;28426;42.872;25.314;2023-01-09T05:41:20;21.05;;;12.90;;
42770;SDS011;28426;42.872;25.314;2023-01-09T05:43:55;26.90;;;13.88;;
42770;SDS011;28426;42.872;25.314;2023-01-09T05:46:28;38.13;;;20.85;;
42770;SDS011;28426;42.872;25.314;2023-01-09T05:49:01;27.40;;;15.52;;
42770;SDS011;28426;42.872;25.314;2023-01-09T05:51:33;23.60;;;13.07;;
42770;SDS011;28426;42.872;25.314;2023-01-09T05:54:10;29.05;;;12.70;;
42770;SDS011;28426;42.872;25.314;2023-01-09T05:56:44;36.10;;;13.10;;
42770;SDS011;28426;42.872;25.314;2023-01-09T05:59:17;26.35;;;13.40;;
42770;SDS011;28426;42.872;25.314;2023-01-09T06:01:51;33.20;;;16.55;;
42770;SDS011;28426;42.872;25.314;2023-01-09T06:04:24;40.25;;;20.17;;
42770;SDS011;28426;42.872;25.314;2023-01-09T06:06:56;55.40;;;21.17;;
42770;SDS011;28426;42.872;25.314;2023-01-09T06:09:33;35.72;;;20.25;;
42770;SDS011;28426;42.872;25.314;2023-01-09T06:12:09;37.53;;;20.17;;
42770;SDS011;28426;42.872;25.314;2023-01-09T06:14:45;83.25;;;39.75;;
42770;SDS011;28426;42.872;25.314;2023-01-09T06:17:20;104.15;;;48.10;;
42770;SDS011;28426;42.872;25.314;2023-01-09T06:19:55;107.30;;;50.65;;
42770;SDS011;28426;42.872;25.314;2023-01-09T06:22:26;86.03;;;45.13;;
42770;SDS011;28426;42.872;25.314;2023-01-09T06:24:59;84.20;;;43.45;;
42770;SDS011;28426;42.872;25.314;2023-01-09T06:27:30;82.50;;;40.40;;
42770;SDS011;28426;42.872;25.314;2023-01-09T06:30:01;82.32;;;41.45;;
42770;SDS011;28426;42.872;25.314;2023-01-09T06:32:31;73.30;;;37.30;;
42770;SDS011;28426;42.872;25.314;2023-01-09T06:35:02;53.65;;;29.13;;
42770;SDS011;28426;42.872;25.314;2023-01-09T06:37:33;58.83;;;30.92;;
42770;SDS011;28426;42.872;25.314;2023-01-09T06:40:07;29.33;;;15.82;;
42770;SDS011;28426;42.872;25.314;2023-01-09T06:42:41;31.98;;;18.00;;
42770;SDS011;28426;42.872;25.314;2023-01-09T06:45:12;50.55;;;25.58;;
42770;SDS011;28426;42.872;25.314;2023-01-09T06:47:43;31.55;;;18.00;;
42770;SDS011;28426;42.872;25.314;2023-01-09T06:50:16;29.73;;;14.45;;
42770;SDS011;28426;42.872;25.314;2023-01-09T06:52:47;18.73;;;10.18;;
42770;SDS011;28426;42.872;25.314;2023-01-09T06:55:20;19.08;;;10.13;;
42770;SDS011;28426;42.872;25.314;2023-01-09T06:57:52;14.23;;;9.07;;
42770;SDS011;28426;42.872;25.314;2023-01-09T07:00:23;13.77;;;7.80;;
42770;SDS011;28426;42.872;25.314;2023-01-09T07:02:54;11.98;;;6.57;;
42770;SDS011;28426;42.872;25.314;2023-01-09T07:05:24;9.60;;;5.82;;
42770;SDS011;28426;42.872;25.314;2023-01-09T07:07:55;11.95;;;6.35;;
42770;SDS011;28426;42.872;25.314;2023-01-09T07:10:28;11.02;;;6.20;;
42770;SDS011;28426;42.872;25.314;2023-01-09T07:12:59;13.07;;;6.53;;
42770;SDS011;28426;42.872;25.314;2023-01-09T07:15:30;33.30;;;6.53;;
42770;SDS011;28426;42.872;25.314;2023-01-09T07:18:00;11.93;;;6.55;;
42770;SDS011;28426;42.872;25.314;2023-01-09T07:20:31;11.98;;;6.53;;
42770;SDS011;28426;42.872;25.314;2023-01-09T07:23:01;14.02;;;6.57;;
42770;SDS011;28426;42.872;25.314;2023-01-09T07:25:35;12.48;;;7.03;;
42770;SDS011;28426;42.872;25.314;2023-01-09T07:28:05;10.80;;;6.93;;
42770;SDS011;28426;42.872;25.314;2023-01-09T07:30:36;12.13;;;7.25;;
42770;SDS011;28426;42.872;25.314;2023-01-09T07:33:07;14.15;;;7.28;;
42770;SDS011;28426;42.872;25.314;2023-01-09T07:35:37;13.48;;;7.63;;
42770;SDS011;28426;42.872;25.314;2023-01-09T07:38:08;11.20;;;7.10;;
42770;SDS011;28426;42.872;25.314;2023-01-09T07:40:41;15.88;;;8.55;;
42770;SDS011;28426;42.872;25.314;2023-01-09T07:43:12;15.02;;;7.13;;
42770;SDS011;28426;42.872;25.314;2023-01-09T07:45:43;13.45;;;7.72;;
42770;SDS011;28426;42.872;25.314;2023-01-09T07:48:15;12.93;;;7.75;;
42770;SDS011;28426;42.872;25.314;2023-01-09T07:50:46;13.10;;;8.05;;
42770;SDS011;28426;42.872;25.314;2023-01-09T07:53:16;21.58;;;11.45;;
42770;SDS011;28426;42.872;25.314;2023-01-09T07:55:50;13.52;;;9.32;;
42770;SDS011;28426;42.872;25.314;2023-01-09T07:58:20;18.92;;;11.18;;
42770;SDS011;28426;42.872;25.314;2023-01-09T08:00:51;15.02;;;9.30;;
42770;SDS011;28426;42.872;25.314;2023-01-09T08:03:22;13.18;;;7.85;;
42770;SDS011;28426;42.872;25.314;2023-01-09T08:05:53;13.30;;;7.95;;
42770;SDS011;28426;42.872;25.314;2023-01-09T08:08:23;20.20;;;9.20;;
42770;SDS011;28426;42.872;25.314;2023-01-09T08:10:56;15.10;;;8.15;;
42770;SDS011;28426;42.872;25.314;2023-01-09T08:13:27;14.02;;;8.40;;
42770;SDS011;28426;42.872;25.314;2023-01-09T08:15:58;14.27;;;9.77;;
42770;SDS011;28426;42.872;25.314;2023-01-09T08:18:28;11.88;;;7.53;;
42770;SDS011;28426;42.872;25.314;2023-01-09T08:20:59;14.10;;;8.40;;
42770;SDS011;28426;42.872;25.314;2023-01-09T08:23:30;13.85;;;8.88;;
42770;SDS011;28426;42.872;25.314;2023-01-09T08:26:03;15.23;;;8.50;;
42770;SDS011;28426;42.872;25.314;2023-01-09T08:28:34;13.82;;;8.25;;
42770;SDS011;28426;42.872;25.314;2023-01-09T08:31:04;12.25;;;7.50;;
42770;SDS011;28426;42.872;25.314;2023-01-09T08:33:35;11.00;;;7.57;;
42770;SDS011;28426;42.872;25.314;2023-01-09T08:36:06;14.55;;;7.85;;
42770;SDS011;28426;42.872;25.314;2023-01-09T08:38:38;19.17;;;8.50;;
42770;SDS011;28426;42.872;25.314;2023-01-09T08:41:11;13.40;;;7.43;;
42770;SDS011;28426;42.872;25.314;2023-01-09T08:43:54;18.02;;;8.13;;
42770;SDS011;28426;42.872;25.314;2023-01-09T08:46:37;33.15;;;9.38;;
42770;SDS011;28426;42.872;25.314;2023-01-09T08:49:20;14.63;;;8.13;;
42770;SDS011;28426;42.872;25.314;2023-01-09T08:51:51;13.55;;;8.57;;
42770;SDS011;28426;42.872;25.314;2023-01-09T08:54:22;14.15;;;8.65;;
42770;SDS011;28426;42.872;25.314;2023-01-09T08:56:55;16.17;;;9.38;;
42770;SDS011;28426;42.872;25.314;2023-01-09T08:59:26;21.00;;;8.40;;
42770;SDS011;28426;42.872;25.314;2023-01-09T09:01:57;56.33;;;9.10;;
42770;SDS011;28426;42.872;25.314;2023-01-09T09:04:27;15.02;;;8.00;;
42770;SDS011;28426;42.872;25.314;2023-01-09T09:06:58;16.35;;;8.10;;
42770;SDS011;28426;42.872;25.314;2023-01-09T09:09:28;15.18;;;7.50;;
42770;SDS011;28426;42.872;25.314;2023-01-09T09:12:02;15.93;;;7.75;;
42770;SDS011;28426;42.872;25.314;2023-01-09T09:14:33;16.05;;;7.97;;
42770;SDS011;28426;42.872;25.314;2023-01-09T09:17:15;121.72;;;13.40;;
42770;SDS011;28426;42.872;25.314;2023-01-09T09:19:46;13.55;;;7.82;;
42770;SDS011;28426;42.872;25.314;2023-01-09T09:22:17;15.30;;;7.82;;
42770;SDS011;28426;42.872;25.314;2023-01-09T09:24:48;14.18;;;8.00;;
42770;SDS011;28426;42.872;25.314;2023-01-09T09:27:21;14.70;;;8.50;;
42770;SDS011;28426;42.872;25.314;2023-01-09T09:29:51;13.43;;;7.45;;
42770;SDS011;28426;42.872;25.314;2023-01-09T09:32:22;15.68;;;8.55;;
42770;SDS011;28426;42.872;25.314;2023-01-09T09:34:53;19.02;;;9.68;;
42770;SDS011;28426;42.872;25.314;2023-01-09T09:37:23;21.08;;;8.25;;
42770;SDS011;28426;42.872;25.314;2023-01-09T09:39:54;49.70;;;9.27;;
42770;SDS011;28426;42.872;25.314;2023-01-09T09:45:33;26.08;;;8.57;;
42770;SDS011;28426;42.872;25.314;2023-01-09T09:48:16;14.82;;;8.00;;
42770;SDS011;28426;42.872;25.314;2023-01-09T09:51:02;14.90;;;8.55;;
42770;SDS011;28426;42.872;25.314;2023-01-09T09:53:53;18.13;;;9.63;;
42770;SDS011;28426;42.872;25.314;2023-01-09T09:56:29;16.23;;;8.82;;
42770;SDS011;28426;42.872;25.314;2023-01-09T09:59:08;12.77;;;8.35;;
42770;SDS011;28426;42.872;25.314;2023-01-09T10:01:47;14.85;;;8.93;;
42770;SDS011;28426;42.872;25.314;2023-01-09T10:04:22;15.45;;;8.50;;
42770;SDS011;28426;42.872;25.314;2023-01-09T10:06:55;21.45;;;12.25;;
42770;SDS011;28426;42.872;25.314;2023-01-09T10:09:35;17.63;;;10.63;;
42770;SDS011;28426;42.872;25.314;2023-01-09T10:12:24;15.55;;;9.20;;
42770;SDS011;28426;42.872;25.314;2023-01-09T10:15:01;14.82;;;8.75;;
42770;SDS011;28426;42.872;25.314;2023-01-09T10:17:39;17.23;;;9.82;;
42770;SDS011;28426;42.872;25.314;2023-01-09T10:23:26;17.35;;;10.05;;
42770;SDS011;28426;42.872;25.314;2023-01-09T10:26:09;15.90;;;9.77;;
42770;SDS011;28426;42.872;25.314;2023-01-09T10:31:57;18.02;;;10.43;;
42770;SDS011;28426;42.872;25.314;2023-01-09T10:34:39;20.27;;;10.45;;
42770;SDS011;28426;42.872;25.314;2023-01-09T10:37:19;18.75;;;9.93;;
42770;SDS011;28426;42.872;25.314;2023-01-09T10:39:53;18.25;;;10.15;;
42770;SDS011;28426;42.872;25.314;2023-01-09T10:42:30;19.65;;;9.05;;
42770;SDS011;28426;42.872;25.314;2023-01-09T10:45:05;22.38;;;12.35;;
42770;SDS011;28426;42.872;25.314;2023-01-09T10:47:49;218.55;;;20.35;;
42770;SDS011;28426;42.872;25.314;2023-01-09T10:50:20;19.58;;;12.13;;
42770;SDS011;28426;42.872;25.314;2023-01-09T10:52:53;87.95;;;13.90;;
42770;SDS011;28426;42.872;25.314;2023-01-09T10:55:26;16.38;;;9.85;;
42770;SDS011;28426;42.872;25.314;2023-01-09T10:58:09;41.67;;;11.43;;
42770;SDS011;28426;42.872;25.314;2023-01-09T11:00:41;89.80;;;13.90;;
42770;SDS011;28426;42.872;25.314;2023-01-09T11:03:16;19.58;;;9.93;;
42770;SDS011;28426;42.872;25.314;2023-01-09T11:05:49;33.50;;;11.38;;
42770;SDS011;28426;42.872;25.314;2023-01-09T11:08:22;16.63;;;10.25;;
42770;SDS011;28426;42.872;25.314;2023-01-09T11:10:57;20.67;;;10.20;;
42770;SDS011;28426;42.872;25.314;2023-01-09T11:13:30;16.02;;;9.32;;
42770;SDS011;28426;42.872;25.314;2023-01-09T11:16:04;18.13;;;10.45;;
42770;SDS011;28426;42.872;25.314;2023-01-09T11:18:39;14.77;;;9.32;;
42770;SDS011;28426;42.872;25.314;2023-01-09T11:21:29;17.02;;;9.57;;
42770;SDS011;28426;42.872;25.314;2023-01-09T11:27:17;19.77;;;11.93;;
42770;SDS011;28426;42.872;25.314;2023-01-09T11:30:11;131.10;;;16.27;;
42770;SDS011;28426;42.872;25.314;2023-01-09T11:32:46;267.23;;;27.15;;
42770;SDS011;28426;42.872;25.314;2023-01-09T11:35:22;22.42;;;9.82;;
42770;SDS011;28426;42.872;25.314;2023-01-09T11:38:04;27.33;;;15.32;;
42770;SDS011;28426;42.872;25.314;2023-01-09T11:40:43;17.90;;;9.55;;
42770;SDS011;28426;42.872;25.314;2023-01-09T11:43:18;19.58;;;10.75;;
42770;SDS011;28426;42.872;25.314;2023-01-09T11:45:52;15.97;;;11.07;;
42770;SDS011;28426;42.872;25.314;2023-01-09T11:48:37;17.85;;;9.85;;
42770;SDS011;28426;42.872;25.314;2023-01-09T11:51:19;16.25;;;10.30;;
42770;SDS011;28426;42.872;25.314;2023-01-09T11:53:56;15.40;;;9.75;;
42770;SDS011;28426;42.872;25.314;2023-01-09T11:56:37;15.02;;;9.02;;
42770;SDS011;28426;42.872;25.314;2023-01-09T11:59:09;19.90;;;9.43;;
42770;SDS011;28426;42.872;25.314;2023-01-09T12:01:53;14.35;;;8.48;;
42770;SDS011;28426;42.872;25.314;2023-01-09T12:04:34;13.60;;;9.00;;
42770;SDS011;28426;42.872;25.314;2023-01-09T12:07:22;15.45;;;9.15;;
42770;SDS011;28426;42.872;25.314;2023-01-09T12:10:07;18.60;;;9.63;;
42770;SDS011;28426;42.872;25.314;2023-01-09T12:12:53;14.52;;;9.35;;
42770;SDS011;28426;42.872;25.314;2023-01-09T12:15:32;15.18;;;9.70;;
42770;SDS011;28426;42.872;25.314;2023-01-09T12:18:20;16.88;;;10.27;;
42770;SDS011;28426;42.872;25.314;2023-01-09T12:21:08;17.50;;;8.93;;
42770;SDS011;28426;42.872;25.314;2023-01-09T12:23:52;14.45;;;9.27;;
42770;SDS011;28426;42.872;25.314;2023-01-09T12:26:32;15.65;;;10.52;;
42770;SDS011;28426;42.872;25.314;2023-01-09T12:29:11;13.90;;;8.68;;
42770;SDS011;28426;42.872;25.314;2023-01-09T12:32:00;17.30;;;10.00;;
42770;SDS011;28426;42.872;25.314;2023-01-09T12:34:49;15.05;;;9.57;;
42770;SDS011;28426;42.872;25.314;2023-01-09T12:37:32;14.30;;;9.82;;
42770;SDS011;28426;42.872;25.314;2023-01-09T12:40:24;15.65;;;10.40;;
42770;SDS011;28426;42.872;25.314;2023-01-09T12:43:08;17.50;;;9.80;;
42770;SDS011;28426;42.872;25.314;2023-01-09T12:45:54;16.73;;;10.93;;
42770;SDS011;28426;42.872;25.314;2023-01-09T12:48:37;18.80;;;10.07;;
42770;SDS011;28426;42.872;25.314;2023-01-09T12:54:08;15.20;;;9.70;;
42770;SDS011;28426;42.872;25.314;2023-01-09T12:56:48;16.35;;;10.02;;
42770;SDS011;28426;42.872;25.314;2023-01-09T12:59:27;20.40;;;12.18;;
42770;SDS011;28426;42.872;25.314;2023-01-09T13:02:08;19.38;;;10.20;;
42770;SDS011;28426;42.872;25.314;2023-01-09T13:04:47;18.50;;;11.65;;
42770;SDS011;28426;42.872;25.314;2023-01-09T13:07:22;17.30;;;9.85;;
42770;SDS011;28426;42.872;25.314;2023-01-09T13:09:57;19.23;;;11.48;;
42770;SDS011;28426;42.872;25.314;2023-01-09T13:12:34;13.85;;;9.30;;
42770;SDS011;28426;42.872;25.314;2023-01-09T13:15:17;17.48;;;10.10;;
42770;SDS011;28426;42.872;25.314;2023-01-09T13:18:00;16.08;;;10.30;;
42770;SDS011;28426;42.872;25.314;2023-01-09T13:20:35;12.93;;;9.30;;
42770;SDS011;28426;42.872;25.314;2023-01-09T13:23:12;18.77;;;10.80;;
42770;SDS011;28426;42.872;25.314;2023-01-09T13:25:49;19.25;;;10.18;;
42770;SDS011;28426;42.872;25.314;2023-01-09T13:28:26;16.20;;;10.53;;
42770;SDS011;28426;42.872;25.314;2023-01-09T13:31:11;17.73;;;10.00;;
42770;SDS011;28426;42.872;25.314;2023-01-09T13:33:57;19.60;;;10.68;;
42770;SDS011;28426;42.872;25.314;2023-01-09T13:36:32;15.18;;;9.98;;
42770;SDS011;28426;42.872;25.314;2023-01-09T13:39:15;17.75;;;9.90;;
42770;SDS011;28426;42.872;25.314;2023-01-09T13:41:51;16.27;;;9.88;;
42770;SDS011;28426;42.872;25.314;2023-01-09T13:44:40;18.05;;;10.75;;
42770;SDS011;28426;42.872;25.314;2023-01-09T13:47:18;15.68;;;9.23;;
42770;SDS011;28426;42.872;25.314;2023-01-09T13:50:04;17.90;;;10.27;;
42770;SDS011;28426;42.872;25.314;2023-01-09T13:52:50;19.20;;;11.07;;
42770;SDS011;28426;42.872;25.314;2023-01-09T13:55:22;17.27;;;11.25;;
42770;SDS011;28426;42.872;25.314;2023-01-09T13:58:16;18.45;;;11.75;;
42770;SDS011;28426;42.872;25.314;2023-01-09T14:00:52;21.77;;;12.27;;
42770;SDS011;28426;42.872;25.314;2023-01-09T14:03:25;20.45;;;12.60;;
42770;SDS011;28426;42.872;25.314;2023-01-09T14:06:09;20.37;;;12.73;;
42770;SDS011;28426;42.872;25.314;2023-01-09T14:08:46;20.42;;;12.80;;
42770;SDS011;28426;42.872;25.314;2023-01-09T14:11:21;21.95;;;11.90;;
42770;SDS011;28426;42.872;25.314;2023-01-09T14:13:59;19.30;;;12.00;;
42770;SDS011;28426;42.872;25.314;2023-01-09T14:16:35;19.70;;;12.65;;
42770;SDS011;28426;42.872;25.314;2023-01-09T14:19:18;15.77;;;10.70;;
42770;SDS011;28426;42.872;25.314;2023-01-09T14:21:55;18.48;;;11.43;;
42770;SDS011;28426;42.872;25.314;2023-01-09T14:24:27;24.42;;;13.95;;
42770;SDS011;28426;42.872;25.314;2023-01-09T14:27:01;25.85;;;13.05;;
42770;SDS011;28426;42.872;25.314;2023-01-09T14:29:38;23.10;;;13.38;;
42770;SDS011;28426;42.872;25.314;2023-01-09T14:35:18;18.20;;;11.23;;
42770;SDS011;28426;42.872;25.314;2023-01-09T14:40:53;19.83;;;11.90;;
42770;SDS011;28426;42.872;25.314;2023-01-09T14:43:30;20.25;;;12.68;;
42770;SDS011;28426;42.872;25.314;2023-01-09T14:46:10;19.35;;;11.75;;
42770;SDS011;28426;42.872;25.314;2023-01-09T14:51:44;19.58;;;12.40;;
42770;SDS011;28426;42.872;25.314;2023-01-09T14:54:21;21.95;;;13.27;;
42770;SDS011;28426;42.872;25.314;2023-01-09T14:56:56;24.75;;;15.15;;
42770;SDS011;28426;42.872;25.314;2023-01-09T14:59:28;27.67;;;14.63;;
42770;SDS011;28426;42.872;25.314;2023-01-09T15:01:59;21.98;;;12.75;;
42770;SDS011;28426;42.872;25.314;2023-01-09T15:04:32;28.35;;;16.77;;
42770;SDS011;28426;42.872;25.314;2023-01-09T15:07:16;22.92;;;13.30;;
42770;SDS011;28426;42.872;25.314;2023-01-09T15:09:51;20.93;;;13.13;;
42770;SDS011;28426;42.872;25.314;2023-01-09T15:12:22;23.70;;;14.52;;
42770;SDS011;28426;42.872;25.314;2023-01-09T15:14:54;19.50;;;12.20;;
42770;SDS011;28426;42.872;25.314;2023-01-09T15:17:31;18.35;;;12.13;;
42770;SDS011;28426;42.872;25.314;2023-01-09T15:20:14;20.55;;;11.30;;
42770;SDS011;28426;42.872;25.314;2023-01-09T15:22:48;21.60;;;12.93;;
42770;SDS011;28426;42.872;25.314;2023-01-09T15:25:22;19.63;;;12.80;;
42770;SDS011;28426;42.872;25.314;2023-01-09T15:28:18;23.05;;;14.10;;
42770;SDS011;28426;42.872;25.314;2023-01-09T15:30:58;23.00;;;13.13;;
42770;SDS011;28426;42.872;25.314;2023-01-09T15:33:36;21.98;;;14.10;;
42770;SDS011;28426;42.872;25.314;2023-01-09T15:36:13;29.08;;;16.42;;